createdAt,value
2018-12-30T00:00:01.323Z,8.37
2018-12-30T00:02:29.836Z,8.47
2018-12-30T00:04:59.160Z,8.97
2018-12-30T00:07:28.248Z,9.07
2018-12-30T00:09:57.144Z,9.00
2018-12-30T00:12:25.475Z,8.40
2018-12-30T00:14:54.568Z,9.37
2018-12-30T00:17:23.930Z,8.47
2018-12-30T00:19:53.033Z,9.10
2018-12-30T00:22:21.421Z,8.67
2018-12-30T00:24:49.835Z,9.37
2018-12-30T00:27:18.626Z,9.67
2018-12-30T00:29:47.210Z,8.80
2018-12-30T00:32:15.806Z,17.23
2018-12-30T00:34:44.847Z,12.20
2018-12-30T00:37:13.232Z,8.50
2018-12-30T00:39:42.124Z,8.97
2018-12-30T00:42:12.473Z,7.83
2018-12-30T00:44:40.991Z,8.50
2018-12-30T00:47:09.898Z,7.87
2018-12-30T00:49:38.507Z,9.30
2018-12-30T00:52:07.159Z,12.83
2018-12-30T00:54:35.958Z,12.70
2018-12-30T00:57:05.300Z,12.23
2018-12-30T00:59:33.750Z,12.20
2018-12-30T01:02:02.444Z,24.43
2018-12-30T01:04:31.527Z,17.97
2018-12-30T01:06:59.920Z,17.43
2018-12-30T01:09:28.535Z,13.03
2018-12-30T01:11:57.287Z,14.03
2018-12-30T01:14:25.767Z,18.57
2018-12-30T01:16:56.815Z,20.40
2018-12-30T01:19:26.012Z,21.27
2018-12-30T01:21:54.704Z,21.43
2018-12-30T01:24:23.510Z,19.47
2018-12-30T01:26:52.378Z,17.17
2018-12-30T01:29:21.435Z,18.43
2018-12-30T01:31:49.990Z,18.77
2018-12-30T01:34:18.602Z,19.57
2018-12-30T01:36:47.592Z,20.27
2018-12-30T01:39:16.185Z,20.27
2018-12-30T01:41:45.074Z,19.73
2018-12-30T01:44:13.730Z,20.67
2018-12-30T01:46:42.165Z,22.30
2018-12-30T01:49:10.966Z,26.03
2018-12-30T01:51:39.369Z,24.90
2018-12-30T01:54:07.782Z,21.77
2018-12-30T01:56:36.319Z,19.60
2018-12-30T01:59:04.879Z,18.93
2018-12-30T02:01:33.582Z,19.40
2018-12-30T02:04:02.144Z,19.53
2018-12-30T02:06:30.756Z,20.90
2018-12-30T02:08:59.680Z,24.20
2018-12-30T02:11:28.241Z,23.57
2018-12-30T02:13:56.903Z,19.57
2018-12-30T02:16:26.177Z,17.07
2018-12-30T02:18:54.540Z,16.83
2018-12-30T02:21:23.994Z,14.57
2018-12-30T02:23:52.434Z,14.57
2018-12-30T02:26:20.825Z,14.43
2018-12-30T02:28:49.216Z,15.67
2018-12-30T02:31:17.905Z,13.70
2018-12-30T02:33:46.871Z,15.67
2018-12-30T02:36:15.263Z,16.07
2018-12-30T02:38:43.859Z,14.97
2018-12-30T02:41:12.499Z,22.80
2018-12-30T02:43:41.158Z,27.23
2018-12-30T02:46:10.387Z,25.50
2018-12-30T02:48:38.775Z,25.77
2018-12-30T02:51:07.166Z,22.17
2018-12-30T02:53:36.212Z,25.57
2018-12-30T02:56:04.607Z,20.60
2018-12-30T02:58:33.297Z,20.17
2018-12-30T03:01:01.737Z,23.93
2018-12-30T03:03:30.119Z,22.97
2018-12-30T03:05:58.947Z,23.33
2018-12-30T03:08:27.452Z,18.33
2018-12-30T03:10:56.583Z,16.40
2018-12-30T03:13:25.430Z,12.30
2018-12-30T03:15:54.045Z,17.20
2018-12-30T03:18:22.782Z,23.73
2018-12-30T03:20:51.262Z,24.33
2018-12-30T03:23:20.533Z,23.17
2018-12-30T03:25:49.262Z,27.07
2018-12-30T03:28:17.655Z,26.37
2018-12-30T03:30:46.478Z,25.67
2018-12-30T03:33:14.939Z,21.67
2018-12-30T03:35:43.496Z,23.03
2018-12-30T03:38:12.323Z,25.60
2018-12-30T03:40:41.083Z,24.37
2018-12-30T03:43:09.551Z,23.23
2018-12-30T03:45:38.136Z,22.43
2018-12-30T03:48:06.699Z,23.27
2018-12-30T03:50:35.247Z,25.20
2018-12-30T03:53:04.222Z,23.37
2018-12-30T03:55:32.783Z,17.73
2018-12-30T03:58:01.288Z,19.03
2018-12-30T04:00:29.911Z,18.43
2018-12-30T04:02:58.299Z,16.63
2018-12-30T04:05:26.768Z,17.90
2018-12-30T04:07:55.200Z,13.07
2018-12-30T04:10:24.132Z,15.67
2018-12-30T04:12:52.784Z,16.97
2018-12-30T04:15:21.360Z,18.30
2018-12-30T04:17:50.376Z,18.67
2018-12-30T04:20:18.759Z,17.17
2018-12-30T04:22:47.383Z,18.23
2018-12-30T04:25:16.222Z,18.43
2018-12-30T04:27:44.705Z,18.03
2018-12-30T04:30:13.536Z,19.47
2018-12-30T04:32:42.057Z,19.53
2018-12-30T04:35:11.901Z,20.00
2018-12-30T04:37:40.656Z,21.17
2018-12-30T04:40:09.313Z,16.97
2018-12-30T04:42:37.705Z,19.97
2018-12-30T04:45:06.491Z,17.07
2018-12-30T04:47:35.035Z,17.47
2018-12-30T04:50:03.916Z,19.40
2018-12-30T04:52:32.396Z,20.63
2018-12-30T04:55:00.786Z,25.70
2018-12-30T04:57:29.553Z,24.23
2018-12-30T04:59:58.199Z,24.90
2018-12-30T05:02:26.595Z,22.57
2018-12-30T05:04:55.240Z,21.67
2018-12-30T05:07:23.955Z,24.03
2018-12-30T05:09:52.345Z,24.10
2018-12-30T05:12:20.737Z,29.73
2018-12-30T05:14:49.336Z,22.57
2018-12-30T05:17:18.248Z,14.40
2018-12-30T05:19:46.808Z,13.07
2018-12-30T05:22:15.551Z,12.13
2018-12-30T05:24:44.211Z,13.50
2018-12-30T05:27:12.748Z,16.40
2018-12-30T05:29:41.644Z,10.77
2018-12-30T05:32:10.383Z,16.03
2018-12-30T05:34:38.603Z,15.33
2018-12-30T05:37:07.027Z,14.33
2018-12-30T05:39:35.654Z,14.40
2018-12-30T05:42:04.233Z,12.67
2018-12-30T05:44:32.648Z,7.27
2018-12-30T05:47:01.035Z,9.87
2018-12-30T05:49:29.983Z,8.10
2018-12-30T05:51:58.754Z,8.80
2018-12-30T05:54:27.570Z,7.63
2018-12-30T05:56:55.956Z,9.07
2018-12-30T05:59:24.555Z,8.17
2018-12-30T06:01:53.311Z,8.83
2018-12-30T06:04:21.727Z,8.30
2018-12-30T06:06:50.322Z,8.47
2018-12-30T06:09:19.118Z,7.63
2018-12-30T06:11:47.630Z,6.80
2018-12-30T06:14:16.486Z,6.50
2018-12-30T06:16:44.808Z,6.37
2018-12-30T06:19:13.460Z,6.60
2018-12-30T06:21:42.276Z,6.57
2018-12-30T06:24:10.632Z,6.63
2018-12-30T06:26:39.004Z,6.50
2018-12-30T06:29:07.427Z,5.90
2018-12-30T06:31:35.915Z,5.77
2018-12-30T06:34:04.360Z,4.67
2018-12-30T06:36:33.044Z,4.10
2018-12-30T06:39:01.701Z,4.77
2018-12-30T06:41:30.323Z,4.00
2018-12-30T06:43:59.366Z,5.33
2018-12-30T06:46:28.088Z,9.67
2018-12-30T06:48:57.267Z,4.90
2018-12-30T06:51:26.031Z,4.10
2018-12-30T06:53:54.413Z,4.20
2018-12-30T06:56:22.800Z,5.43
2018-12-30T06:58:51.591Z,13.93
2018-12-30T07:01:20.214Z,5.80
2018-12-30T07:03:48.688Z,4.43
2018-12-30T07:06:17.119Z,3.73
2018-12-30T07:08:45.639Z,8.03
2018-12-30T07:11:14.256Z,8.23
2018-12-30T07:13:43.381Z,7.90
2018-12-30T07:16:11.935Z,10.17
2018-12-30T07:18:40.387Z,13.90
2018-12-30T07:21:08.883Z,11.70
2018-12-30T07:23:37.655Z,10.67
2018-12-30T07:26:06.539Z,3.40
2018-12-30T07:28:35.057Z,3.97
2018-12-30T07:31:03.771Z,6.50
2018-12-30T07:33:32.612Z,8.80
2018-12-30T07:36:01.174Z,8.77
2018-12-30T07:38:29.895Z,8.23
2018-12-30T07:40:58.360Z,8.17
2018-12-30T07:43:27.251Z,7.40
2018-12-30T07:45:55.978Z,8.97
2018-12-30T07:48:24.555Z,10.53
2018-12-30T07:50:53.486Z,5.00
2018-12-30T07:53:22.538Z,5.30
2018-12-30T07:55:51.603Z,9.80
2018-12-30T07:58:20.036Z,12.87
2018-12-30T08:00:48.423Z,10.10
2018-12-30T08:03:17.383Z,13.57
2018-12-30T08:05:46.099Z,17.90
2018-12-30T08:08:14.630Z,17.37
2018-12-30T08:10:43.997Z,19.90
2018-12-30T08:13:12.906Z,35.77
2018-12-30T08:15:41.370Z,45.80
2018-12-30T08:18:10.201Z,37.43
2018-12-30T08:20:38.622Z,38.30
2018-12-30T08:23:07.590Z,35.53
2018-12-30T08:25:36.184Z,33.80
2018-12-30T08:28:05.422Z,27.50
2018-12-30T08:30:33.962Z,24.37
2018-12-30T08:33:03.004Z,26.03
2018-12-30T08:35:31.738Z,23.77
2018-12-30T08:38:00.408Z,21.07
2018-12-30T08:40:28.872Z,12.23
2018-12-30T08:42:57.680Z,18.87
2018-12-30T08:45:27.878Z,16.00
2018-12-30T08:47:56.542Z,16.97
2018-12-30T08:50:25.007Z,9.00
2018-12-30T08:52:53.750Z,8.07
2018-12-30T08:55:22.420Z,5.87
2018-12-30T08:57:52.131Z,8.27
2018-12-30T09:00:20.526Z,12.97
2018-12-30T09:02:49.328Z,8.00
2018-12-30T09:05:20.668Z,5.63
2018-12-30T09:07:49.339Z,5.57
2018-12-30T09:10:18.320Z,5.13
2018-12-30T09:12:50.741Z,5.60
2018-12-30T09:15:19.479Z,5.63
2018-12-30T09:17:50.310Z,4.40
2018-12-30T09:20:18.894Z,5.10
2018-12-30T09:22:48.072Z,4.40
2018-12-30T09:25:16.920Z,4.40
2018-12-30T09:27:47.827Z,4.10
2018-12-30T09:30:16.405Z,4.17
2018-12-30T09:32:44.864Z,4.30
2018-12-30T09:35:17.684Z,4.83
2018-12-30T09:37:48.456Z,4.83
2018-12-30T09:40:18.627Z,4.90
2018-12-30T09:42:47.667Z,5.03
2018-12-30T09:45:16.205Z,4.70
2018-12-30T09:47:45.074Z,4.57
2018-12-30T09:50:15.450Z,4.37
2018-12-30T09:52:46.033Z,4.77
2018-12-30T09:55:15.880Z,3.80
2018-12-30T09:57:49.012Z,4.93
2018-12-30T10:00:17.812Z,4.60
2018-12-30T10:02:48.027Z,3.97
2018-12-30T10:05:18.770Z,5.70
2018-12-30T10:07:47.269Z,4.10
2018-12-30T10:10:15.945Z,3.13
2018-12-30T10:12:45.013Z,3.10
2018-12-30T10:15:15.999Z,4.47
2018-12-30T10:17:44.387Z,5.17
2018-12-30T10:20:13.348Z,4.17
2018-12-30T10:22:41.912Z,7.37
2018-12-30T10:25:11.520Z,4.03
2018-12-30T10:27:40.171Z,5.90
2018-12-30T10:30:10.308Z,6.00
2018-12-30T10:32:38.994Z,9.17
2018-12-30T10:35:07.808Z,5.30
2018-12-30T10:37:36.216Z,5.87
2018-12-30T10:40:04.825Z,4.80
2018-12-30T10:42:33.462Z,5.17
2018-12-30T10:45:02.204Z,5.90
2018-12-30T10:47:30.739Z,4.77
2018-12-30T10:50:00.027Z,4.40
2018-12-30T10:52:28.477Z,4.37
2018-12-30T10:54:57.759Z,3.90
2018-12-30T10:57:27.833Z,5.13
2018-12-30T10:59:59.691Z,9.20
2018-12-30T11:02:30.773Z,15.10
2018-12-30T11:05:00.302Z,7.33
2018-12-30T11:07:29.850Z,5.60
2018-12-30T11:10:02.370Z,4.33
2018-12-30T11:12:32.474Z,4.30
2018-12-30T11:15:03.876Z,4.37
2018-12-30T11:17:34.765Z,4.07
2018-12-30T11:20:04.564Z,3.30
2018-12-30T11:22:40.184Z,4.90
2018-12-30T11:25:12.895Z,3.33
2018-12-30T11:27:43.743Z,5.00
2018-12-30T11:30:13.393Z,5.67
2018-12-30T11:32:44.032Z,5.23
2018-12-30T11:35:21.988Z,6.33
2018-12-30T11:37:55.367Z,7.73
2018-12-30T11:40:25.639Z,4.17
2018-12-30T11:42:58.262Z,6.43
2018-12-30T11:45:34.229Z,6.83
2018-12-30T11:48:04.085Z,4.13
2018-12-30T11:50:35.414Z,5.30
2018-12-30T11:53:04.587Z,4.27
2018-12-30T11:55:35.788Z,4.20
2018-12-30T11:58:04.946Z,5.00
2018-12-30T12:00:35.865Z,8.73
2018-12-30T12:03:04.860Z,5.03
2018-12-30T12:05:35.084Z,4.30
2018-12-30T12:08:03.662Z,4.40
2018-12-30T12:10:32.331Z,4.50
2018-12-30T12:13:01.066Z,3.70
2018-12-30T12:15:30.384Z,4.73
2018-12-30T12:18:00.494Z,7.07
2018-12-30T12:20:32.361Z,4.73
2018-12-30T12:23:01.740Z,3.77
2018-12-30T12:25:30.939Z,5.23
2018-12-30T12:28:06.483Z,44.23
2018-12-30T12:30:35.542Z,7.00
2018-12-30T12:33:04.163Z,6.67
2018-12-30T12:35:37.853Z,5.40
2018-12-30T12:38:07.519Z,4.60
2018-12-30T12:40:37.497Z,5.37
2018-12-30T12:43:06.337Z,8.90
2018-12-30T12:45:36.217Z,7.80
2018-12-30T12:48:05.460Z,5.27
2018-12-30T12:50:35.034Z,6.00
2018-12-30T12:53:09.115Z,6.00
2018-12-30T12:55:38.634Z,6.20
2018-12-30T12:58:09.464Z,6.00
2018-12-30T13:00:38.377Z,5.83
2018-12-30T13:03:07.202Z,8.93
2018-12-30T13:05:36.115Z,9.27
2018-12-30T13:08:09.498Z,6.80
2018-12-30T13:10:40.262Z,6.80
2018-12-30T13:13:09.273Z,6.37
2018-12-30T13:15:38.057Z,7.30
2018-12-30T13:18:06.561Z,8.50
2018-12-30T13:20:38.096Z,6.63
2018-12-30T13:23:07.277Z,7.90
2018-12-30T13:25:36.279Z,7.97
2018-12-30T13:28:05.569Z,19.67
2018-12-30T13:30:34.474Z,13.67
2018-12-30T13:33:05.873Z,11.27
2018-12-30T13:35:34.934Z,48.50
2018-12-30T13:38:11.731Z,35.37
2018-12-30T13:40:40.240Z,26.57
2018-12-30T13:43:09.231Z,11.67
2018-12-30T13:45:39.093Z,6.70
2018-12-30T13:48:07.758Z,9.67
2018-12-30T13:50:36.875Z,10.93
2018-12-30T13:53:06.149Z,40.20
2018-12-30T13:55:35.884Z,22.37
2018-12-30T13:58:06.940Z,8.17
2018-12-30T14:00:35.760Z,20.57
2018-12-30T14:03:04.488Z,11.50
2018-12-30T14:05:33.050Z,20.60
2018-12-30T14:08:02.144Z,19.13
2018-12-30T14:10:30.582Z,22.47
2018-12-30T14:12:59.120Z,13.07
2018-12-30T14:15:27.752Z,24.30
2018-12-30T14:17:56.768Z,13.83
2018-12-30T14:20:25.201Z,21.93
2018-12-30T14:22:53.809Z,20.53
2018-12-30T14:25:22.362Z,13.80
2018-12-30T14:27:51.127Z,7.43
2018-12-30T14:30:19.785Z,12.63
2018-12-30T14:32:50.221Z,13.87
2018-12-30T14:35:19.171Z,20.03
2018-12-30T14:37:47.677Z,24.03
2018-12-30T14:40:17.300Z,15.17
2018-12-30T14:42:45.814Z,16.03
2018-12-30T14:45:15.131Z,12.30
2018-12-30T14:47:43.972Z,10.50
2018-12-30T14:50:12.390Z,7.40
2018-12-30T14:52:41.245Z,11.03
2018-12-30T14:55:10.014Z,11.00
2018-12-30T14:57:38.708Z,11.80
2018-12-30T15:00:08.378Z,17.83
2018-12-30T15:02:37.228Z,19.70
2018-12-30T15:05:05.937Z,9.30
2018-12-30T15:07:34.390Z,12.23
2018-12-30T15:10:04.121Z,7.97
2018-12-30T15:12:35.910Z,9.07
2018-12-30T15:15:05.232Z,37.97
2018-12-30T15:17:40.971Z,21.97
2018-12-30T15:20:14.592Z,30.63
2018-12-30T15:22:44.953Z,18.00
2018-12-30T15:25:14.066Z,92.43
2018-12-30T15:27:43.303Z,57.03
2018-12-30T15:30:12.094Z,123.60
2018-12-30T15:32:44.471Z,53.10
2018-12-30T15:35:13.357Z,40.27
2018-12-30T15:37:41.782Z,16.70
2018-12-30T15:40:13.416Z,22.23
2018-12-30T15:42:44.554Z,15.13
2018-12-30T15:45:18.438Z,8.53
2018-12-30T15:47:47.664Z,7.90
2018-12-30T15:50:16.102Z,29.70
2018-12-30T15:52:44.790Z,43.23
2018-12-30T15:55:19.539Z,30.90
2018-12-30T15:57:50.032Z,26.50
2018-12-30T16:00:18.787Z,18.77
2018-12-30T16:02:47.647Z,15.13
2018-12-30T16:05:18.631Z,15.97
2018-12-30T16:07:47.570Z,20.87
2018-12-30T16:10:16.416Z,43.50
2018-12-30T16:12:45.636Z,75.47
2018-12-30T16:15:14.212Z,14.93
2018-12-30T16:17:47.190Z,49.13
2018-12-30T16:20:16.681Z,72.47
2018-12-30T16:22:46.007Z,76.80
2018-12-30T16:25:18.246Z,10.37
2018-12-30T16:27:47.237Z,9.33
2018-12-30T16:30:16.154Z,9.17
2018-12-30T16:32:45.069Z,56.50
2018-12-30T16:35:16.054Z,28.00
2018-12-30T16:37:46.320Z,19.13
2018-12-30T16:40:17.480Z,20.83
2018-12-30T16:42:45.943Z,103.90
2018-12-30T16:45:16.025Z,139.23
2018-12-30T16:47:45.246Z,35.13
2018-12-30T16:50:16.649Z,107.10
2018-12-30T16:52:45.706Z,27.40
2018-12-30T16:55:14.190Z,33.30
2018-12-30T16:58:04.637Z,42.03
2018-12-30T17:00:36.086Z,41.30
2018-12-30T17:03:07.716Z,29.90
2018-12-30T17:05:50.979Z,43.93
2018-12-30T17:08:18.853Z,31.00
2018-12-30T17:10:49.067Z,20.63
2018-12-30T17:13:20.456Z,16.17
2018-12-30T17:15:52.266Z,9.57
2018-12-30T17:18:21.196Z,11.47
2018-12-30T17:20:50.238Z,15.60
2018-12-30T17:23:20.317Z,13.87
2018-12-30T17:25:48.981Z,16.50
2018-12-30T17:28:22.116Z,14.90
2018-12-30T17:30:51.369Z,13.30
2018-12-30T17:33:20.294Z,15.07
2018-12-30T17:35:58.688Z,15.07
2018-12-30T17:38:27.270Z,19.63
2018-12-30T17:41:01.512Z,14.50
2018-12-30T17:43:26.446Z,13.70
2018-12-30T17:45:55.689Z,14.47
2018-12-30T17:48:25.133Z,12.47
2018-12-30T17:50:53.893Z,16.17
2018-12-30T17:53:22.824Z,10.83
2018-12-30T17:55:51.209Z,11.70
2018-12-30T17:58:20.271Z,13.33
2018-12-30T18:00:48.660Z,19.77
2018-12-30T18:03:17.478Z,11.63
2018-12-30T18:05:46.068Z,18.50
2018-12-30T18:08:14.900Z,19.60
2018-12-30T18:10:43.820Z,17.70
2018-12-30T18:13:13.065Z,13.00
2018-12-30T18:15:41.467Z,12.63
2018-12-30T18:18:10.217Z,11.07
2018-12-30T18:20:38.644Z,19.07
2018-12-30T18:23:06.879Z,21.43
2018-12-30T18:25:35.042Z,14.40
2018-12-30T18:28:03.432Z,7.50
2018-12-30T18:30:31.579Z,21.67
2018-12-30T18:32:59.747Z,26.37
2018-12-30T18:35:27.943Z,31.97
2018-12-30T18:37:56.113Z,53.13
2018-12-30T18:40:24.271Z,73.23
2018-12-30T18:42:52.785Z,23.10
2018-12-30T18:45:21.445Z,29.33
2018-12-30T18:47:49.682Z,27.60
2018-12-30T18:50:18.402Z,39.27
2018-12-30T18:52:46.888Z,87.63
2018-12-30T18:55:15.277Z,71.33
2018-12-30T18:57:43.729Z,96.40
2018-12-30T19:00:12.384Z,91.73
2018-12-30T19:02:40.901Z,102.70
2018-12-30T19:05:09.484Z,77.27
2018-12-30T19:07:38.421Z,54.67
2018-12-30T19:10:07.807Z,28.37
2018-12-30T19:12:36.502Z,36.90
2018-12-30T19:15:06.216Z,22.37
2018-12-30T19:17:36.381Z,24.03
2018-12-30T19:20:05.759Z,30.17
2018-12-30T19:22:34.464Z,32.40
2018-12-30T19:25:03.473Z,40.67
2018-12-30T19:27:32.322Z,50.80
2018-12-30T19:30:01.125Z,44.47
2018-12-30T19:32:29.798Z,55.13
2018-12-30T19:34:58.368Z,52.70
2018-12-30T19:37:27.057Z,59.13
2018-12-30T19:39:55.757Z,45.83
2018-12-30T19:42:25.496Z,39.60
2018-12-30T19:44:55.454Z,60.23
2018-12-30T19:47:23.858Z,57.33
2018-12-30T19:49:52.300Z,47.40
2018-12-30T19:52:21.790Z,36.97
2018-12-30T19:54:50.778Z,34.77
2018-12-30T19:57:19.637Z,31.20
2018-12-30T19:59:48.540Z,29.03
2018-12-30T20:02:17.642Z,32.70
2018-12-30T20:04:46.349Z,27.53
2018-12-30T20:07:14.937Z,30.63
2018-12-30T20:09:43.370Z,30.73
2018-12-30T20:12:12.633Z,31.33
2018-12-30T20:14:43.366Z,29.57
2018-12-30T20:17:11.857Z,25.97
2018-12-30T20:19:40.948Z,42.77
2018-12-30T20:22:10.084Z,29.27
2018-12-30T20:24:39.662Z,35.90
2018-12-30T20:27:08.189Z,35.20
2018-12-30T20:29:37.208Z,22.60
2018-12-30T20:32:05.410Z,26.00
2018-12-30T20:34:33.876Z,29.27
2018-12-30T20:37:03.509Z,44.73
2018-12-30T20:39:32.440Z,58.03
2018-12-30T20:42:01.155Z,49.43
2018-12-30T20:44:29.783Z,8.83
2018-12-30T20:46:58.649Z,6.70
2018-12-30T20:49:27.520Z,10.20
2018-12-30T20:51:56.945Z,12.70
2018-12-30T20:54:26.866Z,12.67
2018-12-30T20:56:55.721Z,7.33
2018-12-30T20:59:24.118Z,13.90
2018-12-30T21:01:52.792Z,22.27
2018-12-30T21:04:23.384Z,34.07
2018-12-30T21:07:10.111Z,52.27
2018-12-30T21:09:39.197Z,42.63
2018-12-30T21:12:07.558Z,45.90
2018-12-30T21:25:49.722Z,47.30
2018-12-30T21:28:18.202Z,125.77
2018-12-30T21:30:46.417Z,116.97
2018-12-30T21:51:18.175Z,20.93
2018-12-30T21:53:46.709Z,22.73
2018-12-30T21:56:18.823Z,35.53
2018-12-30T21:58:47.235Z,23.00
2018-12-30T22:01:15.639Z,28.70
2018-12-30T22:03:44.109Z,16.87
2018-12-30T22:06:12.590Z,20.13
2018-12-30T22:08:41.518Z,19.73
2018-12-30T22:11:09.983Z,26.17
2018-12-30T22:13:38.423Z,22.73
2018-12-30T22:16:06.666Z,38.17
2018-12-30T22:18:34.898Z,30.40
2018-12-30T22:21:03.643Z,26.27
2018-12-30T22:23:32.139Z,58.87
2018-12-30T22:26:00.525Z,40.00
2018-12-30T22:28:28.804Z,29.20
2018-12-30T22:30:57.158Z,43.13
2018-12-30T22:33:25.714Z,49.30
2018-12-30T22:35:53.964Z,44.50
2018-12-30T22:38:22.408Z,46.90
2018-12-30T22:40:50.764Z,35.73
2018-12-30T22:43:19.398Z,32.67
2018-12-30T22:45:47.612Z,18.10
2018-12-30T22:48:15.874Z,23.23
2018-12-30T22:50:44.476Z,45.53
2018-12-30T22:53:12.708Z,47.27
2018-12-30T22:55:41.112Z,17.13
2018-12-30T22:58:10.395Z,25.17
2018-12-30T23:00:40.607Z,17.00
2018-12-30T23:03:09.036Z,20.17
2018-12-30T23:05:37.286Z,20.40
2018-12-30T23:20:54.358Z,18.07
2018-12-30T23:23:23.066Z,17.80
2018-12-30T23:25:51.340Z,12.17
2018-12-30T23:28:19.557Z,10.27
2018-12-30T23:30:48.042Z,6.97
2018-12-30T23:33:16.255Z,7.50
2018-12-30T23:35:44.809Z,15.90
2018-12-30T23:38:13.311Z,6.57
2018-12-30T23:40:41.813Z,6.30
2018-12-30T23:43:10.498Z,10.10
2018-12-30T23:45:39.212Z,9.30
2018-12-30T23:48:07.426Z,9.97
2018-12-30T23:50:35.892Z,11.17
2018-12-30T23:53:04.108Z,13.30
2018-12-30T23:55:32.307Z,11.70
2018-12-30T23:58:00.955Z,8.03
